Time;durP1;ratioP1;P1;durP2;ratioP2;P2;SDS_P1;SDS_P2;PMS_P1;PMS_P2;Temp;Humidity;BMP_temperature;BMP_pressure;BME280_temperature;BME280_humidity;BME280_pressure;Samples;Min_cycle;Max_cycle;Signal;HPM_P1;HPM_P2
2022/06/24 00:01:34;;;;;;;12.50;4.03;;;;;;;-145.69;100.00;70735.84;5074235;28;20454;-80
2022/06/24 00:04:00;;;;;;;13.32;3.78;;;;;;;-145.69;100.00;70739.81;5075512;28;20241;-80
2022/06/24 00:06:41;;;;;;;11.65;3.67;;;;;;;-145.69;100.00;70743.81;5075528;28;20207;-78
2022/06/24 00:09:07;;;;;;;13.95;3.47;;;;;;;-145.69;100.00;70745.78;5075375;28;20550;-80
2022/06/24 00:11:35;;;;;;;14.68;3.80;;;;;;;-145.69;100.00;70747.78;5075497;28;20681;-80
2022/06/24 00:14:07;;;;;;;12.93;3.70;;;;;;;-145.69;100.00;70749.78;5075659;28;20285;-77
2022/06/24 00:16:53;;;;;;;10.18;3.90;;;;;;;-145.69;100.00;70753.75;5075794;28;20209;-79
2022/06/24 00:19:20;;;;;;;14.07;3.53;;;;;;;-145.69;100.00;70761.72;5075456;28;20293;-79
2022/06/24 00:22:01;;;;;;;14.90;4.20;;;;;;;-145.69;100.00;70769.66;5066909;28;20313;-79
2022/06/24 00:24:27;;;;;;;15.35;4.40;;;;;;;-145.69;100.00;70761.72;5055359;28;20278;-79
2022/06/24 00:26:55;;;;;;;16.15;4.78;;;;;;;-145.69;100.00;70759.72;5055194;28;20727;-80
2022/06/24 00:29:22;;;;;;;12.13;4.40;;;;;;;-145.69;100.00;70767.69;5055284;28;20200;-79
2022/06/24 00:32:06;;;;;;;14.93;4.22;;;;;;;-145.69;100.00;70769.66;5055044;28;20210;-80
2022/06/24 00:34:33;;;;;;;14.93;4.32;;;;;;;-145.69;100.00;70767.69;5055372;28;20207;-80
2022/06/24 00:37:24;;;;;;;10.80;3.88;;;;;;;-145.69;100.00;70785.59;5055189;28;20214;-79
2022/06/24 00:39:51;;;;;;;12.38;4.28;;;;;;;-145.69;100.00;70777.63;5071042;28;20203;-79
2022/06/24 00:42:20;;;;;;;15.30;4.75;;;;;;;-145.69;100.00;70785.59;5074556;28;20439;-80
2022/06/24 00:44:51;;;;;;;14.90;4.45;;;;;;;-145.69;100.00;70789.56;5074966;28;20223;-80
2022/06/24 00:47:19;;;;;;;8.05;3.65;;;;;;;-145.69;100.00;70785.59;5075104;28;20543;-78
2022/06/24 00:49:47;;;;;;;17.00;4.20;;;;;;;-145.69;100.00;70789.56;5074888;28;20268;-79
2022/06/24 00:52:15;;;;;;;12.10;4.40;;;;;;;-145.69;100.00;70795.53;5074880;28;20210;-79
2022/06/24 00:54:43;;;;;;;14.48;4.15;;;;;;;-145.69;100.00;70793.53;5074741;28;20207;-80
2022/06/24 00:57:10;;;;;;;17.58;4.72;;;;;;;-145.69;100.00;70797.53;5074722;28;20202;-80
2022/06/24 00:59:39;;;;;;;13.88;4.53;;;;;;;-145.69;100.00;70795.53;5074717;28;20653;-80
2022/06/24 01:02:07;;;;;;;13.55;4.05;;;;;;;-145.69;100.00;70793.53;5074548;28;20293;-80
2022/06/24 01:04:35;;;;;;;16.98;5.18;;;;;;;-145.69;100.00;70793.53;5074639;28;20276;-79
2022/06/24 01:07:02;;;;;;;13.93;4.43;;;;;;;-145.69;100.00;70797.53;5074606;28;20226;-79
2022/06/24 01:09:28;;;;;;;11.85;4.60;;;;;;;-145.69;100.00;70809.47;5074393;28;20554;-80
2022/06/24 01:11:55;;;;;;;15.13;5.22;;;;;;;-145.69;100.00;70805.47;5074700;28;20203;-79
2022/06/24 01:14:21;;;;;;;10.55;4.65;;;;;;;-145.69;100.00;70813.44;5074400;28;20202;-80
2022/06/24 01:16:50;;;;;;;13.10;4.72;;;;;;;-145.69;100.00;70809.47;5074438;28;20199;-79
2022/06/24 01:19:16;;;;;;;9.98;4.43;;;;;;;-145.69;100.00;70813.44;5074414;28;20556;-79
2022/06/24 01:21:46;;;;;;;13.98;4.63;;;;;;;-145.69;100.00;70823.38;5072092;28;20248;-79
2022/06/24 01:24:15;;;;;;;16.73;4.25;;;;;;;-145.69;100.00;70821.41;5074361;28;20207;-79
2022/06/24 01:26:43;;;;;;;16.33;4.50;;;;;;;-145.69;100.00;70833.34;5074214;28;20226;-79
2022/06/24 01:29:10;;;;;;;14.85;4.30;;;;;;;-145.69;100.00;70835.31;5074255;28;20207;-79
2022/06/24 01:31:38;;;;;;;10.82;4.35;;;;;;;-145.69;100.00;70845.28;5073749;28;20206;-79
2022/06/24 01:34:05;;;;;;;14.85;4.65;;;;;;;-145.69;100.00;70853.22;5074020;28;20677;-79
2022/06/24 01:36:31;;;;;;;13.80;4.57;;;;;;;-145.69;100.00;70843.28;5074151;28;20607;-80
2022/06/24 01:38:59;;;;;;;16.05;5.07;;;;;;;-145.69;100.00;70855.22;5074109;28;20195;-80
2022/06/24 01:41:26;;;;;;;11.82;3.90;;;;;;;-145.69;100.00;70861.19;5073477;28;20198;-80
2022/06/24 01:43:52;;;;;;;15.23;5.03;;;;;;;-145.69;100.00;70847.25;5073812;28;20252;-80
2022/06/24 01:46:18;;;;;;;13.80;5.35;;;;;;;-145.69;100.00;70841.28;5073284;28;20223;-80
2022/06/24 01:48:45;;;;;;;15.52;5.13;;;;;;;-145.69;100.00;70845.28;5073303;28;20199;-80
2022/06/24 01:51:14;;;;;;;13.50;4.90;;;;;;;-145.69;100.00;70853.22;5073708;28;20199;-80
2022/06/24 01:53:40;;;;;;;15.32;5.03;;;;;;;-145.69;100.00;70841.28;5073847;28;20260;-80
2022/06/24 01:56:08;;;;;;;20.42;4.95;;;;;;;-145.69;100.00;70851.25;5072709;28;20561;-79
2022/06/24 01:58:35;;;;;;;13.55;5.20;;;;;;;-145.69;100.00;70853.22;5073595;28;20202;-79
2022/06/24 02:01:01;;;;;;;14.73;5.15;;;;;;;-145.69;100.00;70863.19;5073439;28;20210;-80
2022/06/24 02:03:29;;;;;;;11.13;4.95;;;;;;;-145.69;100.00;70865.16;5072631;28;20199;-80
2022/06/24 02:05:58;;;;;;;14.00;5.07;;;;;;;-145.69;100.00;70859.19;5072978;28;20223;-80
2022/06/24 02:08:25;;;;;;;13.18;4.05;;;;;;;-145.69;100.00;70865.16;5073428;28;20202;-79
2022/06/24 02:13:37;;;;;;;14.48;5.20;;;;;;;-145.69;100.00;70869.16;5073079;28;20205;-80
2022/06/24 02:16:05;;;;;;;10.38;4.68;;;;;;;-145.69;100.00;70875.13;5069771;28;20198;-80
2022/06/24 02:18:32;;;;;;;11.57;4.30;;;;;;;-145.69;100.00;70887.06;5073274;28;20248;-79
2022/06/24 02:21:00;;;;;;;16.92;4.68;;;;;;;-145.69;100.00;70893.03;5073318;28;20203;-79
2022/06/24 02:23:27;;;;;;;11.80;5.43;;;;;;;-145.69;100.00;70889.03;5073023;28;20222;-79
2022/06/24 02:25:55;;;;;;;13.45;5.05;;;;;;;-145.69;100.00;70879.09;5073057;28;20288;-80
2022/06/24 02:28:22;;;;;;;9.85;4.60;;;;;;;-145.69;100.00;70897.00;5073064;28;20202;-79
2022/06/24 02:30:53;;;;;;;15.27;4.82;;;;;;;-145.69;100.00;70908.94;5073257;28;20636;-79
2022/06/24 02:33:20;;;;;;;14.00;5.30;;;;;;;-145.69;100.00;70897.00;5073192;28;20298;-80
2022/06/24 02:35:47;;;;;;;12.50;4.55;;;;;;;-145.69;100.00;70902.97;5073100;28;20627;-79
2022/06/24 02:38:14;;;;;;;14.55;4.90;;;;;;;-145.69;100.00;70912.91;5073082;28;20199;-79
2022/06/24 02:40:47;;;;;;;12.80;4.63;;;;;;;-145.69;100.00;70924.84;5072596;28;20251;-79
2022/06/24 02:43:16;;;;;;;20.15;6.88;;;;;;;-145.69;100.00;70893.03;5072145;28;20431;-80
2022/06/24 02:45:43;;;;;;;13.73;4.97;;;;;;;-145.69;100.00;70902.97;5072644;28;20637;-79
2022/06/24 02:48:11;;;;;;;12.50;5.70;;;;;;;-145.69;100.00;70889.03;5073012;28;20202;-80
2022/06/24 02:50:39;;;;;;;15.88;5.10;;;;;;;-145.69;100.00;70881.09;5072877;28;20221;-78
2022/06/24 02:53:06;;;;;;;16.92;6.82;;;;;;;-145.69;100.00;70875.13;5072241;28;20446;-79
2022/06/24 02:55:32;;;;;;;15.82;5.88;;;;;;;-145.69;100.00;70875.13;5072684;28;20202;-79
2022/06/24 02:57:59;;;;;;;18.10;5.32;;;;;;;-145.69;100.00;70881.09;5072958;28;20194;-78
2022/06/24 03:00:25;;;;;;;14.45;5.10;;;;;;;-145.69;100.00;70895.00;5072864;28;20220;-79
2022/06/24 03:02:52;;;;;;;14.45;4.78;;;;;;;-145.69;100.00;70908.94;5072899;28;20194;-80
2022/06/24 03:05:20;;;;;;;14.05;4.60;;;;;;;-145.69;100.00;70897.00;5072468;28;20272;-80
2022/06/24 03:07:46;;;;;;;13.57;5.43;;;;;;;-145.69;100.00;70908.94;5072300;28;20195;-80
2022/06/24 03:10:13;;;;;;;12.25;5.07;;;;;;;-145.69;100.00;70910.94;5072622;28;20202;-79
2022/06/24 03:12:39;;;;;;;16.13;5.40;;;;;;;-145.69;100.00;70893.03;5072652;28;20255;-79
2022/06/24 03:15:06;;;;;;;14.82;5.82;;;;;;;-145.69;100.00;70889.03;5072783;28;20546;-79
2022/06/24 03:17:33;;;;;;;10.40;5.07;;;;;;;-145.69;100.00;70889.03;5072463;28;20676;-80
2022/06/24 03:19:59;;;;;;;16.10;5.33;;;;;;;-145.69;100.00;70885.06;5072562;28;20657;-79
2022/06/24 03:22:27;;;;;;;14.07;4.97;;;;;;;-145.69;100.00;70895.00;5072203;28;20233;-79
2022/06/24 03:24:53;;;;;;;15.27;5.40;;;;;;;-145.69;100.00;70893.03;5072607;28;20260;-79
2022/06/24 03:27:20;;;;;;;11.33;4.93;;;;;;;-145.69;100.00;70904.97;5072574;28;20230;-79
2022/06/24 03:29:47;;;;;;;13.50;4.90;;;;;;;-145.69;100.00;70910.94;5072564;28;20260;-79
2022/06/24 03:32:13;;;;;;;13.50;4.80;;;;;;;-145.69;100.00;70924.84;5072164;28;20231;-80
2022/06/24 03:34:40;;;;;;;14.45;4.97;;;;;;;-145.69;100.00;70928.84;5072108;28;20249;-79
2022/06/24 03:37:07;;;;;;;15.13;5.40;;;;;;;-145.69;100.00;70924.84;5072137;28;20202;-80
2022/06/24 03:39:35;;;;;;;18.27;4.83;;;;;;;-145.69;100.00;70924.84;5072406;28;20205;-79
2022/06/24 03:42:02;;;;;;;13.77;6.13;;;;;;;-145.69;100.00;70918.88;5072451;28;20198;-79
2022/06/24 03:44:29;;;;;;;20.08;5.60;;;;;;;-145.69;100.00;70924.84;5072407;28;20207;-79
2022/06/24 03:46:55;;;;;;;13.97;5.43;;;;;;;-145.69;100.00;70932.81;5072249;28;20235;-80
2022/06/24 03:49:22;;;;;;;11.97;5.50;;;;;;;-145.69;100.00;70924.84;5072196;28;20252;-80
2022/06/24 03:51:48;;;;;;;20.83;5.90;;;;;;;-145.69;100.00;70916.91;5072040;28;20210;-78
2022/06/24 03:54:15;;;;;;;24.23;6.90;;;;;;;-145.69;100.00;70904.97;5072011;28;20580;-79
2022/06/24 03:56:43;;;;;;;18.57;6.70;;;;;;;-145.69;100.00;70908.94;5075899;28;20206;-79
2022/06/24 03:59:10;;;;;;;16.85;6.60;;;;;;;-145.69;100.00;70906.94;5075213;28;20461;-79
2022/06/24 04:01:36;;;;;;;16.17;6.00;;;;;;;-145.69;100.00;70904.97;5075662;28;20202;-79
2022/06/24 04:04:03;;;;;;;15.30;6.15;;;;;;;-145.69;100.00;70908.94;5075425;28;20199;-79
2022/06/24 04:06:30;;;;;;;23.70;5.82;;;;;;;-145.69;100.00;70906.94;5075520;28;20226;-79
2022/06/24 04:08:56;;;;;;;13.57;4.90;;;;;;;-145.69;100.00;70920.88;5075540;28;20195;-79
2022/06/24 04:11:23;;;;;;;11.55;5.25;;;;;;;-145.69;100.00;70916.91;5075801;28;20203;-79
2022/06/24 04:13:51;;;;;;;15.68;5.82;;;;;;;-145.69;100.00;70914.91;5075682;28;20612;-79
2022/06/24 04:16:17;;;;;;;18.90;6.07;;;;;;;-145.69;100.00;70918.88;5075849;28;20612;-78
2022/06/24 04:18:44;;;;;;;14.93;5.60;;;;;;;-145.69;100.00;70920.88;5075667;28;20206;-79
2022/06/24 04:21:12;;;;;;;10.53;5.57;;;;;;;-145.69;100.00;70916.91;5066141;28;20245;-79
2022/06/24 04:23:38;;;;;;;17.15;6.75;;;;;;;-145.69;100.00;70885.06;5060820;28;20230;-79
2022/06/24 04:26:05;;;;;;;18.95;7.65;;;;;;;-145.69;100.00;70871.13;5075321;28;20226;-80
2022/06/24 04:28:31;;;;;;;16.67;7.20;;;;;;;-145.69;100.00;70863.19;5075448;28;20203;-79
2022/06/24 04:30:59;;;;;;;14.38;7.28;;;;;;;-145.69;100.00;70847.25;5075125;28;20431;-79
2022/06/24 04:33:26;;;;;;;17.17;6.88;;;;;;;-145.69;100.00;70841.28;5075153;28;20210;-80
2022/06/24 04:35:53;;;;;;;18.63;7.72;;;;;;;-145.69;100.00;70833.34;5075321;28;20206;-79
2022/06/24 04:38:19;;;;;;;18.83;7.80;;;;;;;-145.69;100.00;70817.41;5075277;28;20214;-79
2022/06/24 04:40:46;;;;;;;16.98;7.70;;;;;;;-145.69;100.00;70805.47;5075244;28;20568;-80
2022/06/24 04:43:13;;;;;;;15.23;6.97;;;;;;;-145.69;100.00;70793.53;5075163;28;20268;-80
2022/06/24 04:45:40;;;;;;;13.18;6.93;;;;;;;-145.69;100.00;70797.53;5074993;28;20199;-79
2022/06/24 04:48:08;;;;;;;13.93;7.18;;;;;;;-145.69;100.00;70783.59;5074942;28;20213;-79
2022/06/24 04:50:34;;;;;;;11.18;5.65;;;;;;;-145.69;100.00;70789.56;5075090;28;20206;-79
2022/06/24 04:53:02;;;;;;;20.10;6.65;;;;;;;-145.69;100.00;70765.69;5075037;28;20600;-79
2022/06/24 04:55:28;;;;;;;14.45;6.65;;;;;;;-145.69;100.00;70755.75;5074485;28;20195;-79
2022/06/24 04:57:55;;;;;;;19.42;6.88;;;;;;;-145.69;100.00;70761.72;5074733;28;20203;-80
2022/06/24 05:00:21;;;;;;;9.57;5.03;;;;;;;-145.69;100.00;70759.72;5074637;28;20553;-79
2022/06/24 05:02:48;;;;;;;17.38;5.45;;;;;;;-145.69;100.00;70757.72;5074505;28;20203;-80
2022/06/24 05:05:16;;;;;;;15.52;6.43;;;;;;;-145.69;100.00;70741.81;5073968;28;21007;-79
2022/06/24 05:07:42;;;;;;;9.15;5.60;;;;;;;-145.69;100.00;70727.88;5073326;28;20724;-80
2022/06/24 05:10:10;;;;;;;9.02;4.93;;;;;;;-145.69;100.00;70723.91;5074430;28;20294;-80
2022/06/24 05:12:36;;;;;;;11.10;3.60;;;;;;;-145.69;100.00;70717.94;5074438;28;20237;-79
2022/06/24 05:15:03;;;;;;;6.72;3.42;;;;;;;-145.69;100.00;70704.00;5074162;28;20199;-79
2022/06/24 05:17:29;;;;;;;12.52;3.30;;;;;;;-145.69;100.00;70700.03;5074447;28;20221;-79
2022/06/24 05:19:56;;;;;;;9.93;3.33;;;;;;;-145.69;100.00;70694.06;5074104;28;20289;-79
2022/06/24 05:22:24;;;;;;;12.68;4.43;;;;;;;-145.69;100.00;70692.06;5073861;28;20230;-81
2022/06/24 05:24:50;;;;;;;10.73;3.03;;;;;;;-145.69;100.00;70680.13;5074149;28;20581;-79
2022/06/24 05:27:17;;;;;;;14.52;3.58;;;;;;;-145.69;100.00;70682.13;5074030;28;20705;-79
2022/06/24 05:29:43;;;;;;;12.25;4.00;;;;;;;-145.69;100.00;70692.06;5074014;28;20210;-79
2022/06/24 05:32:10;;;;;;;10.55;3.33;;;;;;;-145.69;100.00;70678.16;5074151;28;20199;-79
2022/06/24 05:34:36;;;;;;;11.30;3.88;;;;;;;-145.69;100.00;70656.25;5073892;28;20206;-79
2022/06/24 05:37:03;;;;;;;8.65;3.03;;;;;;;-145.69;100.00;70630.41;5074062;28;20198;-79
2022/06/24 05:39:31;;;;;;;6.72;3.25;;;;;;;-145.69;100.00;70586.63;5073902;28;20715;-80
2022/06/24 05:41:58;;;;;;;7.85;3.10;;;;;;;-145.69;100.00;70538.88;5073897;28;20210;-79
2022/06/24 05:44:24;;;;;;;9.73;2.75;;;;;;;-145.69;100.00;70491.13;5073714;28;20214;-81
2022/06/24 05:46:51;;;;;;;8.05;2.63;;;;;;;-145.69;100.00;70435.44;5073800;28;20218;-80
2022/06/24 05:49:18;;;;;;;3.58;1.63;;;;;;;-145.69;100.00;70375.75;5073680;28;20207;-81
2022/06/24 05:51:44;;;;;;;12.65;2.28;;;;;;;-145.69;100.00;70383.72;5073238;28;20191;-76
2022/06/24 05:56:59;;;;;;;11.90;2.58;;;;;;;-145.69;100.00;70270.31;5073547;28;20280;-80
2022/06/24 05:59:25;;;;;;;8.65;1.73;;;;;;;-145.69;100.00;70278.28;5073773;28;20198;-79
2022/06/24 06:01:52;;;;;;;5.60;2.08;;;;;;;-145.69;100.00;70240.47;5073108;28;20201;-77
2022/06/24 06:04:18;;;;;;;6.40;1.70;;;;;;;-145.69;100.00;70202.69;5073520;28;20199;-78
2022/06/24 06:06:48;;;;;;;6.68;1.23;;;;;;;-145.69;99.43;70194.72;5073391;28;20227;-77
2022/06/24 06:09:14;;;;;;;6.85;1.92;;;;;;;-145.69;100.00;70256.41;5073396;28;20222;-77
2022/06/24 06:11:41;;;;;;;4.63;1.42;;;;;;;-145.69;100.00;70341.94;5073550;28;20199;-79
2022/06/24 06:14:10;;;;;;;3.95;1.60;;;;;;;-145.69;100.00;70332.00;5073408;28;20206;-80
2022/06/24 06:16:36;;;;;;;6.05;2.00;;;;;;;-145.69;100.00;70349.91;5073367;28;20203;-80
2022/06/24 06:19:03;;;;;;;8.23;2.03;;;;;;;-145.69;100.00;70369.78;5072361;28;20211;-80
2022/06/24 06:21:29;;;;;;;5.80;1.92;;;;;;;-145.69;100.00;70397.63;5072924;28;20527;-79
2022/06/24 06:23:56;;;;;;;8.88;2.08;;;;;;;-145.69;100.00;70423.50;5072899;28;20279;-80
2022/06/24 06:26:22;;;;;;;9.15;2.45;;;;;;;-145.69;100.00;70423.50;5067998;28;20621;-79
2022/06/24 06:28:49;;;;;;;5.28;2.05;;;;;;;-145.69;100.00;70431.47;5053308;28;20606;-77
2022/06/24 06:31:16;;;;;;;9.05;2.20;;;;;;;-145.69;100.00;70459.31;5053046;28;20206;-79
2022/06/24 06:33:43;;;;;;;7.22;2.28;;;;;;;-145.69;100.00;70481.19;5053183;28;20203;-78
2022/06/24 06:36:11;;;;;;;6.40;2.55;;;;;;;-145.69;100.00;70475.22;5052978;28;20211;-80
2022/06/24 06:38:37;;;;;;;11.45;2.85;;;;;;;-145.69;100.00;70465.28;5052990;28;20199;-79
2022/06/24 06:41:04;;;;;;;5.45;2.45;;;;;;;-145.69;100.00;70383.72;5053122;28;20207;-79
2022/06/24 06:43:31;;;;;;;7.50;1.73;;;;;;;-145.69;100.00;70339.94;5052944;28;20204;-80
2022/06/24 06:45:58;;;;;;;6.30;1.73;;;;;;;-145.69;100.00;70280.28;5052897;28;20199;-80
2022/06/24 06:48:26;;;;;;;7.35;1.45;;;;;;;-145.69;100.00;70256.41;5052799;28;20227;-80
2022/06/24 06:50:56;;;;;;;5.30;1.52;;;;;;;-145.69;100.00;70250.44;5052635;28;20204;-79
2022/06/24 06:53:23;;;;;;;5.20;1.50;;;;;;;-145.69;100.00;70264.34;5071754;28;20200;-79
2022/06/24 06:55:49;;;;;;;2.33;1.27;;;;;;;-145.69;100.00;70276.28;5072982;28;20198;-80
2022/06/24 06:58:16;;;;;;;2.47;1.27;;;;;;;-145.69;96.48;70268.34;5072823;28;20206;-80
2022/06/24 07:00:43;;;;;;;6.00;1.73;;;;;;;-145.69;99.81;70254.41;5072504;28;20205;-80
2022/06/24 07:03:09;;;;;;;6.13;1.40;;;;;;;-145.69;100.00;70256.41;5072832;28;20195;-81
2022/06/24 07:05:37;;;;;;;3.40;1.50;;;;;;;-145.69;100.00;70210.66;5072733;28;20206;-82
2022/06/24 07:08:05;;;;;;;4.95;1.65;;;;;;;-145.69;100.00;70214.63;5072842;28;20236;-79
2022/06/24 07:10:31;;;;;;;4.45;1.40;;;;;;;-145.69;93.32;70226.56;5072631;28;20205;-78
2022/06/24 07:12:58;;;;;;;5.60;1.50;;;;;;;-145.69;100.00;70224.56;5072787;28;20202;-79
2022/06/24 07:15:24;;;;;;;6.22;1.38;;;;;;;-145.69;92.77;70234.50;5072642;28;20490;-77
2022/06/24 07:17:51;;;;;;;4.72;1.50;;;;;;;-145.69;100.00;70198.72;5072519;28;20199;-78
2022/06/24 07:20:18;;;;;;;9.07;1.50;;;;;;;-145.69;93.99;70174.84;5072551;28;20199;-77
2022/06/24 07:22:46;;;;;;;3.92;1.33;;;;;;;-145.69;87.78;70129.09;5072310;28;20276;-77
2022/06/24 07:25:12;;;;;;;7.53;1.42;;;;;;;-145.69;91.34;70141.03;5072669;28;20199;-78
2022/06/24 07:27:38;;;;;;;4.05;1.45;;;;;;;-145.69;98.44;70093.28;5072423;28;20226;-78
2022/06/24 07:30:06;;;;;;;5.93;1.27;;;;;;;-145.69;84.55;70069.41;5073897;28;20657;-78
2022/06/24 07:32:32;;;;;;;5.30;1.27;;;;;;;-145.69;83.64;70093.28;5076259;28;20202;-78
2022/06/24 07:34:59;;;;;;;6.38;1.60;;;;;;;-145.69;87.83;70129.09;5076540;28;20198;-78
2022/06/24 07:37:25;;;;;;;6.20;1.70;;;;;;;-145.69;88.29;70117.16;5076383;28;20209;-78
2022/06/24 07:39:53;;;;;;;6.95;1.40;;;;;;;-145.69;90.06;70129.09;5076414;28;20203;-79
2022/06/24 07:42:19;;;;;;;8.45;1.42;;;;;;;-145.69;89.48;70230.53;5076318;28;20198;-79
2022/06/24 07:44:47;;;;;;;6.68;1.50;;;;;;;-145.69;94.83;70204.69;5076133;28;20248;-78
2022/06/24 07:47:14;;;;;;;8.00;1.80;;;;;;;-145.69;96.29;70204.69;5075874;28;20223;-78
2022/06/24 07:49:40;;;;;;;5.60;1.58;;;;;;;-145.69;99.08;70170.84;5076277;28;20209;-78
2022/06/24 07:52:09;;;;;;;13.55;1.63;;;;;;;-145.69;94.20;70109.19;5075872;28;20197;-79
2022/06/24 07:54:36;;;;;;;4.70;1.52;;;;;;;-145.69;90.56;70113.16;5076199;28;20229;-76
2022/06/24 07:57:03;;;;;;;4.25;1.52;;;;;;;-145.69;88.42;70025.66;5075670;28;20596;-76
2022/06/24 07:59:31;;;;;;;5.35;1.70;;;;;;;-145.69;82.23;69985.88;5075760;28;20252;-78
2022/06/24 08:01:59;;;;;;;4.15;1.15;;;;;;;-145.69;83.91;69920.22;5075596;28;20210;-78
2022/06/24 08:04:27;;;;;;;2.70;1.25;;;;;;;-145.69;79.21;69906.28;5075921;28;20206;-77
2022/06/24 08:06:54;;;;;;;2.70;1.30;;;;;;;-145.69;83.47;69912.25;5075425;28;20257;-76
2022/06/24 08:09:23;;;;;;;4.53;1.42;;;;;;;-145.69;81.89;69894.38;5075600;28;20237;-77
2022/06/24 08:11:50;;;;;;;4.70;1.67;;;;;;;-145.69;83.35;69906.28;5075554;28;20737;-77
2022/06/24 08:14:18;;;;;;;5.13;1.20;;;;;;;-145.69;75.52;69882.44;5075203;28;20658;-77
2022/06/24 08:16:46;;;;;;;4.10;1.45;;;;;;;-145.69;77.09;69898.34;5073610;28;20191;-77
2022/06/24 08:19:12;;;;;;;2.65;1.25;;;;;;;-145.69;76.09;69914.25;5073651;28;20199;-77
2022/06/24 08:21:39;;;;;;;7.05;1.85;;;;;;;-145.69;74.93;69918.22;5063411;28;20219;-77
2022/06/24 08:24:06;;;;;;;6.68;1.38;;;;;;;-145.69;79.82;69896.34;5053406;28;20453;-76
2022/06/24 08:26:33;;;;;;;9.18;1.42;;;;;;;-145.69;74.76;69862.53;5053221;28;20672;-77
2022/06/24 08:29:00;;;;;;;4.07;1.10;;;;;;;-145.69;75.92;69806.84;5053232;28;20604;-78
2022/06/24 08:31:28;;;;;;;6.63;1.38;;;;;;;-145.69;75.89;69792.91;5055155;28;20253;-78
2022/06/24 08:33:54;;;;;;;3.90;1.45;;;;;;;-145.69;68.71;69777.00;5055365;28;20203;-77
2022/06/24 08:36:24;;;;;;;5.30;1.17;;;;;;;-145.69;81.25;69814.78;5055342;28;20229;-77
2022/06/24 08:38:51;;;;;;;4.65;1.20;;;;;;;-145.69;71.58;69814.78;5072945;28;20286;-77
2022/06/24 08:41:22;;;;;;;6.50;1.77;;;;;;;-145.69;72.95;69894.38;5073975;28;20210;-77
2022/06/24 08:43:51;;;;;;;3.15;1.00;;;;;;;-145.69;69.47;69870.50;5075385;28;20531;-79
2022/06/24 08:46:18;;;;;;;4.10;1.20;;;;;;;-145.69;69.78;69856.56;5075177;28;20241;-76
2022/06/24 08:48:46;;;;;;;5.57;1.38;;;;;;;-145.69;67.53;69838.66;5074762;28;20711;-76
2022/06/24 08:51:13;;;;;;;4.00;1.10;;;;;;;-145.69;70.62;69749.16;5074380;28;20430;-76
2022/06/24 08:53:41;;;;;;;3.50;1.05;;;;;;;-145.69;69.09;69683.53;5074981;28;20211;-77
2022/06/24 08:56:08;;;;;;;2.22;0.88;;;;;;;-145.69;65.71;69707.38;5075038;28;20217;-77
2022/06/24 08:58:35;;;;;;;3.30;1.08;;;;;;;-145.69;65.54;69751.16;5074963;28;20297;-76
2022/06/24 09:01:02;;;;;;;2.40;1.10;;;;;;;-145.69;71.66;69908.28;5074665;28;20198;-76
2022/06/24 09:03:29;;;;;;;6.40;1.23;;;;;;;-145.69;73.28;69878.44;5074722;28;20221;-77
2022/06/24 09:05:57;;;;;;;2.13;1.10;;;;;;;-145.69;70.41;69864.53;5074408;28;20195;-76
2022/06/24 09:08:32;;;;;;;5.75;1.35;;;;;;;-145.69;73.46;69866.50;5074249;28;20229;-76
2022/06/24 09:11:09;;;;;;;3.22;1.50;;;;;;;-145.69;71.59;69868.50;5074667;28;20202;-77
2022/06/24 09:13:43;;;;;;;5.10;1.45;;;;;;;-145.69;69.17;69794.91;5075086;28;20596;-78
2022/06/24 09:16:10;;;;;;;3.95;1.10;;;;;;;-145.69;66.13;69765.06;5074556;28;20202;-78
2022/06/24 09:18:37;;;;;;;2.92;1.35;;;;;;;-145.69;64.03;69723.31;5074345;28;20207;-77
2022/06/24 09:21:05;;;;;;;3.13;1.00;;;;;;;-145.69;64.38;69775.00;5074458;28;20207;-78
2022/06/24 09:23:31;;;;;;;3.78;1.10;;;;;;;-145.69;64.80;69802.88;5074239;28;20619;-78
2022/06/24 09:26:00;;;;;;;2.20;1.17;;;;;;;-145.69;64.26;69771.03;5074457;28;20199;-79
2022/06/24 09:28:29;;;;;;;4.00;1.10;;;;;;;-145.69;61.96;69733.25;5074105;28;20317;-78
2022/06/24 09:31:00;;;;;;;2.17;0.85;;;;;;;-145.69;61.94;69651.69;5074643;28;20202;-78
2022/06/24 09:33:27;;;;;;;4.75;1.20;;;;;;;-145.69;62.67;69767.06;5073634;28;20290;-78
2022/06/24 09:36:00;;;;;;;2.50;1.20;;;;;;;-145.69;65.88;69697.44;5074213;28;20260;-78
2022/06/24 09:38:28;;;;;;;4.10;1.10;;;;;;;-145.69;60.16;69641.75;5074073;28;20205;-78
2022/06/24 09:41:00;;;;;;;4.97;1.20;;;;;;;-145.69;62.37;69580.09;5073971;28;20289;-78
2022/06/24 09:43:30;;;;;;;3.67;1.10;;;;;;;-145.69;56.42;69544.28;5074001;28;20206;-78
2022/06/24 09:45:58;;;;;;;8.00;1.30;;;;;;;-145.69;63.97;69717.34;5073684;28;20198;-78
2022/06/24 09:48:29;;;;;;;2.88;0.88;;;;;;;-145.69;60.54;69643.75;5073934;28;20199;-78
2022/06/24 09:50:57;;;;;;;3.35;1.08;;;;;;;-145.69;58.68;69582.09;5073774;28;20296;-79
2022/06/24 09:53:24;;;;;;;4.75;1.15;;;;;;;-145.69;60.39;69502.53;5073606;28;20255;-79
2022/06/24 09:55:52;;;;;;;3.70;0.90;;;;;;;-145.69;55.84;69530.38;5073499;28;20653;-78
2022/06/24 09:58:19;;;;;;;3.60;1.30;;;;;;;-145.69;56.83;69536.34;5073041;28;20426;-78
2022/06/24 10:00:46;;;;;;;4.07;1.30;;;;;;;-145.69;57.89;69586.06;5073681;28;20271;-78
2022/06/24 10:03:14;;;;;;;2.72;1.08;;;;;;;-145.69;62.38;69568.16;5073362;28;20195;-79
2022/06/24 10:05:42;;;;;;;1.67;1.00;;;;;;;-145.69;55.89;69522.41;5073548;28;20199;-78
2022/06/24 10:08:13;;;;;;;4.93;1.02;;;;;;;-145.69;59.35;69653.69;5073393;28;20279;-78
2022/06/24 10:10:46;;;;;;;5.00;1.20;;;;;;;-145.69;56.52;69590.03;5073418;28;20596;-79
2022/06/24 10:13:25;;;;;;;3.13;1.08;;;;;;;-145.69;58.36;69645.72;5073328;28;20202;-79
2022/06/24 10:15:52;;;;;;;3.78;1.00;;;;;;;-145.69;60.92;69637.78;5073430;28;20686;-79
2022/06/24 10:18:21;;;;;;;3.85;1.08;;;;;;;-145.69;56.11;69562.19;5073410;28;20616;-78
2022/06/24 10:20:50;;;;;;;3.40;0.80;;;;;;;-145.69;57.28;69596.00;5073272;28;20218;-79
2022/06/24 10:23:40;;;;;;;2.63;0.85;;;;;;;-145.69;56.61;69661.66;5073164;28;20213;-78
2022/06/24 10:26:16;;;;;;;3.42;1.27;;;;;;;-145.69;59.06;69711.38;5073341;28;20194;-78
2022/06/24 10:29:19;;;;;;;5.82;1.08;;;;;;;-145.69;62.64;69739.22;5073252;28;20313;-78
2022/06/24 10:32:04;;;;;;;5.13;1.10;;;;;;;-145.69;60.21;69727.28;5052853;28;20199;-79
2022/06/24 10:34:42;;;;;;;5.20;1.20;;;;;;;-145.69;58.21;69590.03;5072248;28;20203;-78
2022/06/24 10:37:30;;;;;;;5.40;1.00;;;;;;;-145.69;51.79;69444.84;5073155;28;20259;-78
2022/06/24 10:40:01;;;;;;;6.95;1.05;;;;;;;-145.69;50.33;69351.38;5070292;28;20914;-78
2022/06/24 10:42:30;;;;;;;2.50;0.90;;;;;;;-145.69;49.35;69355.34;5070710;28;20198;-80
2022/06/24 10:45:01;;;;;;;2.70;1.00;;;;;;;-145.69;49.40;69389.16;5069937;28;20919;-78
2022/06/24 10:47:40;;;;;;;7.88;1.13;;;;;;;-145.69;50.97;69403.09;5072847;28;20199;-80
2022/06/24 10:50:18;;;;;;;96.30;20.60;;;;;;;-145.69;53.73;69512.47;5053785;28;20205;-78
2022/06/24 10:52:56;;;;;;;7.32;1.73;;;;;;;-145.69;54.47;69456.78;5068339;28;20729;-81
2022/06/24 10:55:39;;;;;;;8.60;1.50;;;;;;;-145.69;53.83;69450.81;5073092;28;20198;-80
2022/06/24 10:58:08;;;;;;;2.30;1.10;;;;;;;-145.69;56.38;69520.44;5072923;28;20207;-79
2022/06/24 11:00:57;;;;;;;3.90;1.20;;;;;;;-145.69;57.25;69601.97;5069402;28;20199;-77
2022/06/24 11:03:32;;;;;;;3.35;1.15;;;;;;;-145.69;61.38;69637.78;5072072;28;20209;-78
2022/06/24 11:05:59;;;;;;;4.85;1.65;;;;;;;-145.69;65.97;69731.25;5074943;28;20240;-78
2022/06/24 11:08:27;;;;;;;3.53;1.52;;;;;;;-145.69;67.36;69792.91;5076512;28;20223;-78
2022/06/24 11:10:54;;;;;;;3.42;1.40;;;;;;;-145.69;69.08;69790.94;5076323;28;20260;-78
2022/06/24 11:13:23;;;;;;;2.60;1.10;;;;;;;-145.69;67.51;69759.09;5076613;28;20205;-78
2022/06/24 11:15:51;;;;;;;6.00;1.00;;;;;;;-145.69;63.33;69695.47;5076830;28;20199;-78
2022/06/24 11:18:19;;;;;;;4.07;1.20;;;;;;;-145.69;62.09;69584.06;5076755;28;20206;-78
2022/06/24 11:20:52;;;;;;;5.25;1.70;;;;;;;-145.69;62.44;69599.97;5076536;28;20248;-78